createdAt,value
2017-12-20T00:00:00.219Z,45.10
2017-12-20T00:01:00.237Z,49.60
2017-12-20T00:02:00.252Z,48.50
2017-12-20T00:03:00.270Z,51.20
2017-12-20T00:04:00.286Z,51.60
2017-12-20T00:05:00.306Z,51.30
2017-12-20T00:06:00.376Z,51.40
2017-12-20T00:07:00.339Z,50.80
2017-12-20T00:08:00.355Z,51.70
2017-12-20T00:09:00.373Z,51.60
2017-12-20T00:10:00.393Z,47.80
2017-12-20T00:11:00.407Z,51.30
2017-12-20T00:12:00.440Z,53.40
2017-12-20T00:13:00.441Z,53.50
2017-12-20T00:14:00.457Z,48.50
2017-12-20T00:15:00.475Z,52.40
2017-12-20T00:16:00.491Z,49.90
2017-12-20T00:17:00.510Z,51.30
2017-12-20T00:18:00.527Z,53.20
2017-12-20T00:19:00.543Z,59.70
2017-12-20T00:20:00.565Z,53.90
2017-12-20T00:21:00.579Z,48.40
2017-12-20T00:22:00.594Z,53.10
2017-12-20T00:23:00.612Z,53.70
2017-12-20T00:24:00.629Z,50.20
2017-12-20T00:25:00.647Z,51.50
2017-12-20T00:26:00.664Z,51.40
2017-12-20T00:27:00.680Z,52.50
2017-12-20T00:28:00.699Z,62.10
2017-12-20T00:29:00.715Z,54.00
2017-12-20T00:30:00.732Z,55.80
2017-12-20T00:31:00.751Z,53.60
2017-12-20T00:32:00.765Z,56.60
2017-12-20T00:33:00.784Z,52.30
2017-12-20T00:34:00.799Z,56.40
2017-12-20T00:35:00.816Z,55.50
2017-12-20T00:36:00.834Z,53.50
2017-12-20T00:37:00.851Z,55.90
2017-12-20T00:38:00.868Z,58.60
2017-12-20T00:39:00.884Z,58.50
2017-12-20T00:40:00.902Z,59.60
2017-12-20T00:41:00.920Z,60.90
2017-12-20T00:42:00.935Z,57.60
2017-12-20T00:43:00.953Z,62.00
2017-12-20T00:44:00.971Z,52.30
2017-12-20T00:45:00.988Z,64.10
2017-12-20T00:46:01.004Z,62.70
2017-12-20T00:47:01.024Z,56.60
2017-12-20T00:48:01.040Z,58.30
2017-12-20T00:49:01.206Z,66.10
2017-12-20T00:50:01.074Z,57.80
2017-12-20T00:51:01.090Z,63.70
2017-12-20T00:52:01.108Z,61.60
2017-12-20T00:53:01.128Z,68.60
2017-12-20T00:56:01.176Z,61.90
2017-12-20T00:57:01.193Z,64.40
2017-12-20T00:58:01.210Z,64.60
2017-12-20T00:59:01.229Z,68.80
2017-12-20T01:00:01.244Z,64.20
2017-12-20T01:01:01.261Z,57.20
2017-12-20T01:02:01.278Z,64.40
2017-12-20T01:03:01.295Z,64.30
2017-12-20T01:04:01.313Z,66.00
2017-12-20T01:05:01.331Z,60.20
2017-12-20T01:06:01.345Z,63.10
2017-12-20T01:07:01.365Z,64.20
2017-12-20T01:08:01.382Z,60.50
2017-12-20T01:09:01.399Z,70.70
2017-12-20T01:10:01.414Z,63.50
2017-12-20T01:11:01.432Z,61.80
2017-12-20T01:12:01.449Z,67.20
2017-12-20T01:13:01.519Z,74.50
2017-12-20T01:14:01.483Z,65.10
2017-12-20T01:15:01.500Z,68.70
2017-12-20T01:16:01.518Z,72.90
2017-12-20T01:17:01.554Z,70.20
2017-12-20T01:18:01.552Z,70.90
2017-12-20T01:19:01.569Z,67.10
2017-12-20T01:20:01.587Z,69.90
2017-12-20T01:21:01.605Z,72.60
2017-12-20T01:22:01.621Z,72.80
2017-12-20T01:23:01.639Z,71.30
2017-12-20T01:24:01.655Z,72.50
2017-12-20T01:25:01.676Z,75.10
2017-12-20T01:26:01.689Z,69.10
2017-12-20T01:27:01.707Z,70.30
2017-12-20T01:28:01.724Z,77.90
2017-12-20T01:29:01.742Z,66.00
2017-12-20T01:30:01.758Z,73.90
2017-12-20T01:31:01.775Z,73.10
2017-12-20T01:32:01.792Z,69.10
2017-12-20T01:33:01.811Z,74.20
2017-12-20T01:34:01.827Z,75.20
2017-12-20T01:35:01.843Z,70.80
2017-12-20T01:36:01.862Z,70.70
2017-12-20T01:37:01.878Z,68.10
2017-12-20T01:38:01.895Z,74.90
2017-12-20T01:39:01.913Z,69.10
2017-12-20T01:40:01.932Z,75.50
2017-12-20T01:41:01.949Z,81.80
2017-12-20T01:42:01.964Z,72.70
2017-12-20T01:43:01.982Z,69.60
2017-12-20T01:44:01.998Z,82.90
2017-12-20T01:45:02.017Z,79.00
2017-12-20T01:46:02.032Z,83.20
2017-12-20T01:47:02.100Z,81.90
2017-12-20T01:48:02.070Z,81.90
2017-12-20T01:49:02.085Z,86.60
2017-12-20T01:50:02.103Z,88.70
2017-12-20T01:51:02.118Z,92.00
2017-12-20T01:52:02.135Z,90.50
2017-12-20T01:53:02.153Z,94.80
2017-12-20T01:54:02.169Z,92.10
2017-12-20T01:55:02.186Z,92.10
2017-12-20T01:56:02.203Z,98.30
2017-12-20T01:57:02.271Z,94.30
2017-12-20T01:58:02.237Z,95.50
2017-12-20T01:59:02.256Z,89.10
2017-12-20T02:00:02.272Z,104.50
2017-12-20T02:01:02.293Z,90.00
2017-12-20T02:02:02.304Z,87.70
2017-12-20T02:03:02.323Z,102.40
2017-12-20T02:04:02.340Z,87.40
2017-12-20T02:05:02.408Z,94.70
2017-12-20T02:06:02.373Z,103.70
2017-12-20T02:07:02.390Z,99.10
2017-12-20T02:08:02.408Z,104.10
2017-12-20T02:09:02.425Z,90.50
2017-12-20T02:10:02.442Z,104.70
2017-12-20T02:11:02.458Z,101.80
2017-12-20T02:12:02.477Z,95.30
2017-12-20T02:13:02.493Z,98.50
2017-12-20T02:14:02.510Z,92.20
2017-12-20T02:15:02.526Z,93.60
2017-12-20T02:16:02.544Z,99.50
2017-12-20T02:17:02.562Z,101.20
2017-12-20T02:18:02.577Z,95.90
2017-12-20T02:19:02.595Z,99.50
2017-12-20T02:20:02.613Z,96.00
2017-12-20T02:21:02.630Z,100.40
2017-12-20T02:22:02.645Z,88.80
2017-12-20T02:23:02.666Z,90.80
2017-12-20T02:24:02.681Z,87.00
2017-12-20T02:25:02.696Z,102.50
2017-12-20T02:26:02.713Z,102.40
2017-12-20T02:27:02.734Z,86.70
2017-12-20T02:28:02.753Z,94.80
2017-12-20T02:29:02.766Z,106.40
2017-12-20T02:30:02.787Z,109.90
2017-12-20T02:31:02.799Z,109.20
2017-12-20T02:32:02.817Z,103.40
2017-12-20T02:33:02.835Z,103.60
2017-12-20T02:34:02.851Z,119.80
2017-12-20T02:35:02.867Z,108.80
2017-12-20T02:36:02.884Z,103.10
2017-12-20T02:37:02.903Z,112.50
2017-12-20T02:38:02.918Z,98.80
2017-12-20T02:39:02.937Z,106.60
2017-12-20T02:40:02.958Z,108.50
2017-12-20T02:41:02.969Z,102.70
2017-12-20T02:42:02.985Z,113.20
2017-12-20T02:43:03.003Z,107.40
2017-12-20T02:44:03.020Z,114.50
2017-12-20T02:45:03.038Z,115.70
2017-12-20T02:46:03.055Z,107.20
2017-12-20T02:47:03.071Z,115.30
2017-12-20T02:48:03.088Z,109.30
2017-12-20T02:49:03.106Z,113.00
2017-12-20T02:50:03.121Z,105.10
2017-12-20T02:51:03.138Z,104.00
2017-12-20T02:52:03.156Z,100.50
2017-12-20T02:53:03.174Z,112.90
2017-12-20T02:54:03.239Z,104.20
2017-12-20T02:55:03.207Z,104.90
2017-12-20T02:56:03.224Z,106.10
2017-12-20T02:57:03.241Z,109.70
2017-12-20T02:58:03.257Z,115.80
2017-12-20T02:59:03.275Z,112.00
2017-12-20T03:00:03.291Z,108.10
2017-12-20T03:01:03.310Z,110.50
2017-12-20T03:02:03.325Z,105.60
2017-12-20T03:03:03.393Z,115.90
2017-12-20T03:04:03.360Z,111.80
2017-12-20T03:05:03.378Z,112.60
2017-12-20T03:06:03.394Z,106.70
2017-12-20T03:07:03.411Z,99.60
2017-12-20T03:08:03.428Z,103.70
2017-12-20T03:09:03.446Z,113.20
2017-12-20T03:10:03.461Z,111.10
2017-12-20T03:11:03.479Z,110.50
2017-12-20T03:12:03.598Z,119.40
2017-12-20T03:13:03.514Z,121.00
2017-12-20T03:14:03.530Z,111.40
2017-12-20T03:15:03.547Z,110.40
2017-12-20T03:16:03.566Z,112.50
2017-12-20T03:17:03.582Z,114.80
2017-12-20T03:18:03.601Z,125.60
2017-12-20T03:19:03.616Z,123.00
2017-12-20T03:20:03.633Z,125.30
2017-12-20T03:21:03.651Z,129.20
2017-12-20T03:22:03.674Z,128.70
2017-12-20T03:23:03.685Z,127.60
2017-12-20T03:24:03.702Z,131.60
2017-12-20T03:25:03.719Z,128.50
2017-12-20T03:26:03.736Z,124.90
2017-12-20T03:27:03.752Z,126.70
2017-12-20T03:28:03.769Z,133.80
2017-12-20T03:29:03.787Z,130.50
2017-12-20T03:30:03.805Z,122.80
2017-12-20T03:31:03.821Z,123.50
2017-12-20T03:32:03.838Z,129.70
2017-12-20T03:33:03.855Z,135.80
2017-12-20T03:34:03.873Z,137.70
2017-12-20T03:35:03.892Z,137.70
2017-12-20T03:36:03.907Z,125.20
2017-12-20T03:37:03.924Z,136.10
2017-12-20T03:38:03.990Z,138.30
2017-12-20T03:39:03.958Z,136.10
2017-12-20T03:40:03.976Z,145.70
2017-12-20T03:41:03.993Z,133.20
2017-12-20T03:42:04.008Z,136.20
2017-12-20T03:43:04.025Z,142.60
2017-12-20T03:44:04.043Z,150.10
2017-12-20T03:45:04.061Z,141.40
2017-12-20T03:46:04.079Z,145.70
2017-12-20T03:47:04.095Z,137.40
2017-12-20T03:48:04.111Z,140.70
2017-12-20T03:49:04.128Z,140.40
2017-12-20T03:50:04.145Z,143.00
2017-12-20T03:51:04.191Z,158.00
2017-12-20T03:52:04.180Z,155.50
2017-12-20T03:53:04.198Z,147.70
2017-12-20T03:54:04.214Z,134.70
2017-12-20T03:55:04.231Z,144.10
2017-12-20T03:56:04.248Z,156.60
2017-12-20T03:57:04.267Z,152.50
2017-12-20T03:58:04.285Z,149.50
2017-12-20T03:59:04.299Z,159.40
2017-12-20T04:00:04.316Z,144.30
2017-12-20T04:01:04.335Z,143.90
2017-12-20T04:02:04.352Z,143.40
2017-12-20T04:03:04.369Z,150.10
2017-12-20T04:04:04.386Z,156.10
2017-12-20T04:05:04.404Z,143.00
2017-12-20T04:06:04.421Z,139.00
2017-12-20T04:07:04.439Z,136.40
2017-12-20T04:08:04.456Z,155.10
2017-12-20T04:09:04.472Z,134.10
2017-12-20T04:10:04.490Z,144.40
2017-12-20T04:11:04.508Z,149.40
2017-12-20T04:12:04.525Z,136.10
2017-12-20T04:13:04.548Z,139.20
2017-12-20T04:14:04.559Z,144.40
2017-12-20T04:15:04.581Z,139.20
2017-12-20T04:16:04.622Z,153.20
2017-12-20T04:17:04.611Z,131.00
2017-12-20T04:18:04.627Z,131.40
2017-12-20T04:19:04.647Z,145.80
2017-12-20T04:20:04.663Z,134.60
2017-12-20T04:21:04.681Z,138.80
2017-12-20T04:22:04.698Z,135.20
2017-12-20T04:23:04.714Z,138.40
2017-12-20T04:24:04.733Z,126.30
2017-12-20T04:25:04.800Z,133.90
2017-12-20T04:26:04.766Z,138.90
2017-12-20T04:27:04.783Z,132.40
2017-12-20T04:28:04.801Z,130.40
2017-12-20T04:29:04.818Z,142.60
2017-12-20T04:30:04.835Z,128.50
2017-12-20T04:31:04.853Z,140.30
2017-12-20T04:32:04.870Z,129.80
2017-12-20T04:33:04.889Z,145.00
2017-12-20T04:34:04.904Z,129.70
2017-12-20T04:35:04.922Z,141.00
2017-12-20T04:36:04.941Z,132.40
2017-12-20T04:37:05.014Z,130.70
2017-12-20T04:38:04.975Z,130.80
2017-12-20T04:39:04.991Z,131.70
2017-12-20T04:40:05.008Z,133.00
2017-12-20T04:41:05.028Z,121.80
2017-12-20T04:42:05.042Z,138.00
2017-12-20T04:43:05.110Z,129.00
2017-12-20T04:44:05.079Z,137.10
2017-12-20T04:45:05.095Z,131.70
2017-12-20T04:46:05.113Z,137.20
2017-12-20T04:47:05.129Z,126.10
2017-12-20T04:48:05.198Z,125.70
2017-12-20T04:49:05.169Z,125.10
2017-12-20T04:50:05.181Z,127.40
2017-12-20T04:51:05.199Z,120.40
2017-12-20T04:52:05.215Z,117.50
2017-12-20T04:53:05.234Z,122.80
2017-12-20T04:54:05.250Z,119.50
2017-12-20T04:55:05.268Z,126.10
2017-12-20T04:56:05.284Z,131.00
2017-12-20T04:57:05.302Z,132.20
2017-12-20T04:58:05.319Z,114.20
2017-12-20T04:59:05.335Z,120.80
2017-12-20T05:00:05.353Z,122.60
2017-12-20T05:01:05.370Z,114.60
2017-12-20T05:02:05.388Z,123.30
2017-12-20T05:03:05.406Z,127.20
2017-12-20T05:04:05.423Z,131.90
2017-12-20T05:05:05.509Z,119.00
2017-12-20T05:06:05.456Z,132.90
2017-12-20T05:07:05.473Z,121.80
2017-12-20T05:08:05.492Z,133.30
2017-12-20T05:09:05.509Z,114.70
2017-12-20T05:10:05.525Z,113.40
2017-12-20T05:11:05.543Z,122.90
2017-12-20T05:12:05.559Z,118.30
2017-12-20T05:13:05.578Z,128.00
2017-12-20T05:14:05.594Z,123.30
2017-12-20T05:15:05.610Z,114.70
2017-12-20T05:16:05.628Z,126.60
2017-12-20T05:17:05.644Z,131.80
2017-12-20T05:18:05.661Z,120.60
2017-12-20T05:19:05.680Z,125.40
2017-12-20T05:20:05.701Z,127.00
2017-12-20T05:21:05.721Z,134.90
2017-12-20T05:22:05.729Z,133.70
2017-12-20T05:23:05.746Z,135.50
2017-12-20T05:24:05.764Z,122.30
2017-12-20T05:25:05.781Z,119.40
2017-12-20T05:26:05.798Z,119.60
2017-12-20T05:27:05.814Z,126.60
2017-12-20T05:28:05.831Z,120.90
2017-12-20T05:29:05.853Z,121.40
2017-12-20T05:30:05.866Z,115.90
2017-12-20T05:31:05.882Z,126.20
2017-12-20T05:32:05.900Z,125.90
2017-12-20T05:33:05.917Z,113.50
2017-12-20T05:34:05.934Z,122.50
2017-12-20T05:35:05.951Z,122.80
2017-12-20T05:36:05.969Z,119.70
2017-12-20T05:37:05.986Z,122.20
2017-12-20T05:38:06.002Z,127.00
2017-12-20T05:39:06.019Z,126.50
2017-12-20T05:40:06.036Z,118.30
2017-12-20T05:41:06.055Z,131.10
2017-12-20T05:42:06.071Z,120.70
2017-12-20T05:43:06.086Z,125.40
2017-12-20T05:44:06.108Z,113.90
2017-12-20T05:45:06.123Z,115.80
2017-12-20T05:46:06.138Z,116.40
2017-12-20T05:47:06.157Z,104.50
2017-12-20T05:48:06.174Z,109.50
2017-12-20T05:49:06.191Z,99.60
2017-12-20T05:50:06.207Z,105.30
2017-12-20T05:51:06.274Z,109.90
2017-12-20T05:52:06.242Z,102.40
2017-12-20T05:53:06.259Z,106.50
2017-12-20T05:54:06.277Z,109.40
2017-12-20T05:55:06.293Z,102.10
2017-12-20T05:56:06.309Z,110.50
2017-12-20T05:57:06.326Z,99.20
2017-12-20T05:58:06.343Z,97.20
2017-12-20T05:59:06.360Z,105.60
2017-12-20T06:00:06.378Z,102.70
2017-12-20T06:01:06.396Z,101.80
2017-12-20T06:02:06.418Z,105.50
2017-12-20T06:03:06.480Z,92.00
2017-12-20T06:04:06.456Z,106.20
2017-12-20T06:05:06.465Z,93.10
2017-12-20T06:06:06.480Z,86.80
2017-12-20T06:07:06.548Z,92.00
2017-12-20T06:08:06.515Z,96.00
2017-12-20T06:09:06.532Z,83.10
2017-12-20T06:10:06.550Z,89.10
2017-12-20T06:11:06.570Z,87.00
2017-12-20T06:12:06.586Z,86.50
2017-12-20T06:13:06.600Z,88.80
2017-12-20T06:14:06.623Z,90.20
2017-12-20T06:15:06.633Z,86.10
2017-12-20T06:16:06.652Z,84.80
2017-12-20T06:17:06.669Z,87.00
2017-12-20T06:18:06.684Z,87.80
2017-12-20T06:19:06.703Z,88.50
2017-12-20T06:20:06.720Z,91.90
2017-12-20T06:21:06.741Z,86.30
2017-12-20T06:22:06.753Z,90.90
2017-12-20T06:23:06.773Z,90.30
2017-12-20T06:24:06.788Z,92.20
2017-12-20T06:25:06.804Z,90.40
2017-12-20T06:26:06.820Z,95.80
2017-12-20T06:27:06.839Z,94.50
2017-12-20T06:28:06.855Z,92.80
2017-12-20T06:29:06.872Z,94.10
2017-12-20T06:30:06.890Z,98.20
2017-12-20T06:31:06.907Z,91.40
2017-12-20T06:32:06.923Z,104.90
2017-12-20T06:33:06.942Z,96.00
2017-12-20T06:34:06.957Z,98.50
2017-12-20T06:35:06.976Z,99.50
2017-12-20T06:36:06.992Z,93.90
2017-12-20T06:37:07.010Z,98.80
2017-12-20T06:38:07.024Z,101.40
2017-12-20T06:39:07.042Z,100.00
2017-12-20T06:40:07.060Z,110.60
2017-12-20T06:41:07.078Z,100.40
2017-12-20T06:42:07.094Z,94.60
2017-12-20T06:43:07.111Z,96.60
2017-12-20T06:44:07.127Z,102.10
2017-12-20T06:45:07.145Z,88.20
2017-12-20T06:46:07.161Z,102.80
2017-12-20T06:47:07.179Z,99.60
2017-12-20T06:48:07.196Z,100.50
2017-12-20T06:49:07.214Z,102.10
2017-12-20T06:50:07.228Z,97.80
2017-12-20T06:51:07.248Z,92.40
2017-12-20T06:52:07.272Z,98.00
2017-12-20T06:53:07.281Z,91.80
2017-12-20T06:54:07.297Z,95.10
2017-12-20T06:55:07.316Z,94.60
2017-12-20T06:56:07.332Z,100.50
2017-12-20T06:57:07.353Z,86.00
2017-12-20T06:58:07.366Z,105.10
2017-12-20T06:59:07.382Z,114.50
2017-12-20T07:00:07.400Z,106.70
2017-12-20T07:01:07.419Z,106.90
2017-12-20T07:02:07.435Z,112.60
2017-12-20T07:03:07.451Z,106.20
2017-12-20T07:04:07.470Z,99.80
2017-12-20T07:05:07.487Z,100.80
2017-12-20T07:06:07.502Z,110.40
2017-12-20T07:07:07.521Z,117.10
2017-12-20T07:08:07.538Z,103.80
2017-12-20T07:09:07.556Z,101.30
2017-12-20T07:10:07.571Z,112.50
2017-12-20T07:11:07.590Z,105.10
2017-12-20T07:12:07.607Z,104.60
2017-12-20T07:13:07.623Z,112.00
2017-12-20T07:14:53.809Z,104.80
2017-12-20T07:15:07.657Z,96.20
2017-12-20T07:16:07.675Z,105.10
2017-12-20T07:17:07.693Z,106.10
2017-12-20T07:18:07.710Z,105.80
2017-12-20T07:19:07.726Z,111.70
2017-12-20T07:20:07.745Z,109.60
2017-12-20T07:21:07.761Z,116.80
2017-12-20T07:22:07.778Z,108.70
2017-12-20T07:23:07.795Z,106.10
2017-12-20T07:24:07.817Z,112.70
2017-12-20T07:25:07.830Z,108.40
2017-12-20T07:26:07.846Z,115.00
2017-12-20T07:27:07.862Z,108.10
2017-12-20T07:28:07.881Z,101.30
2017-12-20T07:29:07.897Z,114.00
2017-12-20T07:30:07.913Z,102.90
2017-12-20T07:31:07.931Z,105.60
2017-12-20T07:32:07.949Z,105.60
2017-12-20T07:33:07.966Z,108.30
2017-12-20T07:34:07.982Z,105.10
2017-12-20T07:35:08.063Z,96.20
2017-12-20T07:36:08.019Z,97.60
2017-12-20T07:37:08.035Z,89.10
2017-12-20T07:38:08.051Z,95.40
2017-12-20T07:39:08.069Z,99.80
2017-12-20T07:40:08.087Z,90.80
2017-12-20T07:41:08.105Z,104.70
2017-12-20T07:42:08.120Z,93.90
2017-12-20T07:43:08.138Z,85.70
2017-12-20T07:44:08.206Z,92.80
2017-12-20T07:45:08.175Z,84.60
2017-12-20T07:46:08.191Z,95.70
2017-12-20T07:47:08.207Z,92.30
2017-12-20T07:48:08.226Z,94.40
2017-12-20T07:49:08.243Z,91.00
2017-12-20T07:50:08.308Z,100.90
2017-12-20T07:51:08.276Z,92.20
2017-12-20T07:52:08.294Z,96.00
2017-12-20T07:53:08.315Z,84.00
2017-12-20T07:54:08.329Z,90.70
2017-12-20T07:55:08.347Z,92.80
2017-12-20T07:56:08.365Z,101.30
2017-12-20T07:57:08.420Z,88.30
2017-12-20T07:58:08.420Z,87.10
2017-12-20T07:59:08.464Z,92.40
2017-12-20T08:00:08.434Z,90.60
2017-12-20T08:01:08.639Z,95.70
2017-12-20T08:02:08.480Z,100.60
2017-12-20T08:03:08.499Z,93.40
2017-12-20T08:04:08.569Z,102.30
2017-12-20T08:05:08.528Z,86.30
2017-12-20T08:06:08.542Z,95.10
2017-12-20T08:07:08.557Z,91.60
2017-12-20T08:08:08.596Z,88.60
2017-12-20T08:09:08.594Z,90.20
2017-12-20T08:10:08.605Z,84.70
2017-12-20T08:11:08.630Z,88.50
2017-12-20T08:12:08.658Z,84.20
2017-12-20T08:13:08.732Z,87.30
2017-12-20T08:14:08.741Z,88.50
2017-12-20T08:15:08.695Z,90.90
2017-12-20T08:16:08.808Z,85.30
2017-12-20T08:17:08.817Z,81.80
2017-12-20T08:18:08.751Z,80.70
2017-12-20T08:19:08.778Z,78.90
2017-12-20T08:20:08.802Z,81.80
2017-12-20T08:21:08.997Z,80.40
2017-12-20T08:22:08.826Z,79.90
2017-12-20T08:23:08.837Z,87.10
2017-12-20T08:24:08.873Z,78.20
2017-12-20T08:25:08.862Z,73.60
2017-12-20T08:26:09.129Z,73.70
2017-12-20T08:27:08.896Z,75.50
2017-12-20T08:28:08.913Z,79.10
2017-12-20T08:29:08.941Z,74.70
2017-12-20T08:30:08.964Z,67.20
2017-12-20T08:31:09.111Z,75.70
2017-12-20T08:32:09.008Z,75.60
2017-12-20T08:33:09.076Z,74.70
2017-12-20T08:34:09.020Z,74.10
2017-12-20T08:35:09.034Z,72.10
2017-12-20T08:36:09.051Z,71.50
2017-12-20T08:37:09.088Z,70.80
2017-12-20T08:38:09.097Z,73.20
2017-12-20T08:39:09.201Z,72.00
2017-12-20T08:40:09.127Z,69.30
2017-12-20T08:41:09.151Z,66.80
2017-12-20T08:42:09.159Z,74.70
2017-12-20T08:43:09.175Z,76.10
2017-12-20T08:44:09.302Z,65.00
2017-12-20T08:45:09.209Z,70.80
2017-12-20T08:46:09.268Z,65.50
2017-12-20T08:47:09.243Z,60.90
2017-12-20T08:48:09.275Z,78.80
2017-12-20T08:49:09.280Z,66.70
2017-12-20T08:50:09.295Z,72.20
2017-12-20T08:51:09.408Z,68.10
2017-12-20T08:52:09.341Z,65.80
2017-12-20T08:53:09.387Z,67.10
2017-12-20T08:54:09.368Z,73.00
2017-12-20T08:55:09.408Z,69.90
2017-12-20T08:56:09.415Z,69.30
2017-12-20T08:57:09.466Z,70.00
2017-12-20T08:58:09.436Z,69.80
2017-12-20T08:59:09.456Z,68.60
2017-12-20T09:00:09.523Z,65.10
2017-12-20T09:01:09.490Z,69.90
2017-12-20T09:02:09.505Z,71.00
2017-12-20T09:03:09.526Z,68.00
2017-12-20T09:04:09.599Z,64.30
2017-12-20T09:05:09.621Z,73.10
2017-12-20T09:06:09.576Z,66.00
2017-12-20T09:07:09.592Z,61.30
2017-12-20T09:08:09.663Z,66.40
2017-12-20T09:09:09.737Z,68.30
2017-12-20T09:10:09.720Z,65.20
2017-12-20T09:11:09.759Z,67.20
2017-12-20T09:12:09.689Z,66.50
2017-12-20T09:13:09.743Z,67.20
2017-12-20T09:14:09.872Z,62.10
2017-12-20T09:15:09.741Z,66.90
2017-12-20T09:16:09.751Z,62.20
2017-12-20T09:17:09.930Z,69.70
2017-12-20T09:18:09.786Z,67.80
2017-12-20T09:19:09.822Z,65.30
2017-12-20T09:20:09.825Z,67.20
2017-12-20T09:21:09.846Z,68.00
2017-12-20T09:22:09.861Z,62.40
2017-12-20T09:23:09.937Z,65.60
2017-12-20T09:24:09.951Z,68.40
2017-12-20T09:25:09.940Z,75.40
2017-12-20T09:26:09.959Z,69.00
2017-12-20T09:27:10.018Z,73.50
2017-12-20T09:28:10.016Z,65.40
2017-12-20T09:29:09.996Z,76.90
2017-12-20T09:30:09.998Z,72.30
2017-12-20T09:31:10.017Z,70.00
2017-12-20T09:32:10.039Z,80.50
2017-12-20T09:33:10.140Z,81.80
2017-12-20T09:34:10.070Z,75.00
2017-12-20T09:35:10.104Z,84.80
2017-12-20T09:36:10.109Z,72.50
2017-12-20T09:37:10.126Z,84.70
2017-12-20T09:38:10.232Z,84.50
2017-12-20T09:39:10.235Z,80.60
2017-12-20T09:40:10.185Z,72.90
2017-12-20T09:41:10.245Z,83.40
2017-12-20T09:42:10.293Z,81.20
2017-12-20T09:43:10.248Z,80.40
2017-12-20T09:44:10.320Z,90.60
2017-12-20T09:45:10.272Z,78.20
2017-12-20T09:46:10.298Z,86.10
2017-12-20T09:47:10.336Z,87.20
2017-12-20T09:48:10.876Z,85.00
2017-12-20T09:49:10.456Z,87.00
2017-12-20T09:50:10.420Z,84.20
2017-12-20T09:51:10.415Z,91.00
2017-12-20T09:52:10.416Z,87.70
2017-12-20T09:53:10.416Z,94.80
2017-12-20T09:54:10.454Z,87.40
2017-12-20T09:55:10.572Z,84.10
2017-12-20T09:56:10.468Z,79.70
2017-12-20T09:57:10.490Z,86.50
2017-12-20T09:58:10.503Z,79.70
2017-12-20T09:59:10.569Z,85.30
2017-12-20T10:00:10.534Z,90.80
2017-12-20T10:01:10.642Z,79.70
2017-12-20T10:02:10.597Z,84.80
2017-12-20T10:03:10.588Z,74.90
2017-12-20T10:04:10.607Z,76.70
2017-12-20T10:05:10.625Z,97.30
2017-12-20T10:06:10.643Z,80.80
2017-12-20T10:07:10.687Z,84.60
2017-12-20T10:08:10.679Z,79.40
2017-12-20T10:09:10.696Z,81.20
2017-12-20T10:10:10.713Z,84.00
2017-12-20T10:11:10.732Z,84.50
2017-12-20T10:12:10.750Z,83.40
2017-12-20T10:13:10.768Z,79.80
2017-12-20T10:14:10.786Z,73.70
2017-12-20T10:15:10.804Z,78.90
2017-12-20T10:16:10.821Z,79.40
2017-12-20T10:17:10.840Z,75.00
2017-12-20T10:18:10.859Z,78.60
2017-12-20T10:19:10.877Z,73.50
2017-12-20T10:20:10.893Z,79.70
2017-12-20T10:21:10.913Z,77.60
2017-12-20T10:22:10.931Z,77.60
2017-12-20T10:23:10.954Z,72.10
2017-12-20T10:24:10.966Z,70.30
2017-12-20T10:25:10.985Z,77.00
2017-12-20T10:26:11.002Z,80.90
2017-12-20T10:27:11.021Z,82.30
2017-12-20T10:28:11.038Z,76.60
2017-12-20T10:29:11.057Z,76.50
2017-12-20T10:30:11.136Z,85.30
2017-12-20T10:31:11.092Z,85.30
2017-12-20T10:32:11.111Z,79.20
2017-12-20T10:33:11.129Z,75.60
2017-12-20T10:34:11.147Z,79.40
2017-12-20T10:35:11.207Z,74.70
2017-12-20T10:36:11.183Z,85.10
2017-12-20T10:37:11.251Z,79.00
2017-12-20T10:38:11.219Z,74.50
2017-12-20T10:39:11.237Z,74.50
2017-12-20T10:40:11.256Z,84.80
2017-12-20T10:41:11.273Z,75.70
2017-12-20T10:42:11.292Z,80.60
2017-12-20T10:43:11.309Z,84.60
2017-12-20T10:44:11.326Z,81.80
2017-12-20T10:45:11.346Z,83.30
2017-12-20T10:46:11.362Z,90.50
2017-12-20T10:47:11.381Z,78.60
2017-12-20T10:48:11.405Z,89.90
2017-12-20T10:49:11.418Z,101.10
2017-12-20T10:50:11.488Z,82.10
2017-12-20T10:51:11.453Z,87.50
2017-12-20T10:52:11.471Z,79.10
2017-12-20T10:53:11.489Z,83.70
2017-12-20T10:54:11.507Z,77.10
2017-12-20T10:55:11.524Z,74.10
2017-12-20T10:56:11.543Z,78.00
2017-12-20T10:57:11.559Z,80.50
2017-12-20T10:58:11.577Z,77.90
2017-12-20T10:59:11.600Z,75.90
2017-12-20T11:00:11.613Z,74.30
2017-12-20T11:01:11.631Z,73.80
2017-12-20T11:02:11.703Z,73.60
2017-12-20T11:03:11.668Z,69.90
2017-12-20T11:04:11.683Z,64.30
2017-12-20T11:05:11.702Z,71.60
2017-12-20T11:06:11.719Z,70.70
2017-12-20T11:07:11.735Z,70.20
2017-12-20T11:08:11.753Z,66.40
2017-12-20T11:09:11.781Z,74.10
2017-12-20T11:10:11.790Z,72.10
2017-12-20T11:11:11.806Z,73.50
2017-12-20T11:12:11.824Z,75.50
2017-12-20T11:13:11.844Z,81.70
2017-12-20T11:14:11.860Z,75.50
2017-12-20T11:15:11.877Z,70.30
2017-12-20T11:16:11.894Z,66.50
2017-12-20T11:17:11.913Z,78.30
2017-12-20T11:18:11.933Z,69.20
2017-12-20T11:19:11.949Z,70.70
2017-12-20T11:20:11.966Z,69.60
2017-12-20T11:21:11.984Z,74.10
2017-12-20T11:22:12.005Z,71.20
2017-12-20T11:23:12.020Z,74.90
2017-12-20T11:24:12.039Z,75.40
2017-12-20T11:25:12.057Z,67.40
2017-12-20T11:26:12.074Z,70.40
2017-12-20T11:27:12.090Z,69.80
2017-12-20T11:28:12.114Z,70.00
2017-12-20T11:29:12.128Z,63.70
2017-12-20T11:30:12.146Z,68.00
2017-12-20T11:31:12.163Z,65.00
2017-12-20T11:32:12.182Z,65.90
2017-12-20T11:33:12.201Z,65.80
2017-12-20T11:34:12.216Z,66.90
2017-12-20T11:35:12.236Z,64.20
2017-12-20T11:36:12.254Z,69.70
2017-12-20T11:37:12.272Z,62.00
2017-12-20T11:38:12.341Z,64.10
2017-12-20T11:39:12.307Z,83.90
2017-12-20T11:40:12.327Z,73.20
2017-12-20T11:41:12.344Z,63.80
2017-12-20T11:42:12.364Z,75.10
2017-12-20T11:43:12.380Z,74.00
2017-12-20T11:44:12.398Z,68.20
2017-12-20T11:45:12.416Z,65.70
2017-12-20T11:46:12.436Z,68.60
2017-12-20T11:47:12.451Z,67.40
2017-12-20T11:48:12.470Z,65.10
2017-12-20T11:49:12.489Z,70.30
2017-12-20T11:50:12.505Z,71.20
2017-12-20T11:51:12.524Z,71.40
2017-12-20T11:52:12.542Z,73.50
2017-12-20T11:53:12.560Z,66.30
2017-12-20T11:54:12.578Z,70.00
2017-12-20T11:55:12.595Z,70.50
2017-12-20T11:56:12.614Z,72.00
2017-12-20T11:57:12.631Z,75.80
2017-12-20T11:58:12.648Z,68.60
2017-12-20T11:59:12.668Z,65.70
2017-12-20T12:00:12.685Z,72.50
2017-12-20T12:01:12.704Z,106.50
2017-12-20T12:02:12.722Z,79.60
2017-12-20T12:03:12.740Z,71.70
2017-12-20T12:04:12.757Z,69.30
2017-12-20T12:05:12.774Z,75.40
2017-12-20T12:06:12.791Z,85.00
2017-12-20T12:07:12.810Z,71.30
2017-12-20T12:08:12.828Z,70.70
2017-12-20T12:09:12.847Z,72.60
2017-12-20T12:10:12.865Z,69.30
2017-12-20T12:11:12.884Z,65.90
2017-12-20T12:12:12.951Z,72.70
2017-12-20T12:13:12.920Z,70.00
2017-12-20T12:14:12.936Z,78.00
2017-12-20T12:15:12.955Z,67.70
2017-12-20T12:16:12.973Z,70.00
2017-12-20T12:17:12.992Z,72.30
2017-12-20T12:18:13.008Z,78.10
2017-12-20T12:19:13.026Z,75.30
2017-12-20T12:20:13.045Z,77.60
2017-12-20T12:21:13.064Z,79.40
2017-12-20T12:22:13.080Z,80.10
2017-12-20T12:23:13.099Z,77.70
2017-12-20T12:24:13.116Z,75.00
2017-12-20T12:25:13.138Z,71.20
2017-12-20T12:26:13.152Z,65.10
2017-12-20T12:27:13.171Z,55.90
2017-12-20T12:28:13.190Z,60.90
2017-12-20T12:29:13.208Z,61.40
2017-12-20T12:30:13.224Z,68.20
2017-12-20T12:31:13.243Z,68.30
2017-12-20T12:32:13.264Z,65.00
2017-12-20T12:33:13.280Z,77.70
2017-12-20T12:34:13.299Z,66.90
2017-12-20T12:35:13.318Z,66.60
2017-12-20T12:36:13.383Z,62.70
2017-12-20T12:37:13.352Z,64.60
2017-12-20T12:38:13.368Z,66.00
2017-12-20T12:39:13.388Z,66.70
2017-12-20T12:40:13.406Z,72.10
2017-12-20T12:41:13.424Z,61.30
2017-12-20T12:42:13.442Z,67.20
2017-12-20T12:43:13.463Z,73.70
2017-12-20T12:44:13.479Z,67.10
2017-12-20T12:45:13.498Z,79.20